Goofy Ridge, Illinois
Current Conditions -  °F | °C
As of 6:54 PM on Friday 24 Oct 2014 (Local Time) from KPIA Reporting Station
Few Clouds Few Clouds  
Wind Chill: 62°   Ceiling: Unl
Heat Index: 62°   Visibility: 10mi
Dew Point: 51°   Wind: 7mph
Humidity: 67%   Direction: 150°SSE
Pressure: 29.96"   Gusts: NA
Location:  40.3722°N, 89.9358°W
Report Text: KPIA 242354Z 15006KT 10SM FEW039 17/11 A2996 RMK AO2 SLP145 T01670106 10189 20161 58011
Loading
Personal Weather Stations






























Interactive Weather Map
Tropical Storm Tracking
New forecast layout! Learn more

10-Day Weather Forecast

Advertisements
Track Severe Weather on mobile